createdAt,value
2023-01-30T00:01:36.974Z,10.98
2023-01-30T00:06:40.211Z,8.52
2023-01-30T00:11:42.541Z,8.20
2023-01-30T00:16:44.427Z,17.67
2023-01-30T00:21:46.057Z,11.73
2023-01-30T00:26:47.752Z,14.57
2023-01-30T00:31:49.444Z,8.23
2023-01-30T00:37:06.428Z,12.73
2023-01-30T00:42:28.737Z,10.27
2023-01-30T00:47:30.403Z,12.50
2023-01-30T00:52:31.997Z,10.73
2023-01-30T00:57:33.605Z,14.77
2023-01-30T01:02:35.490Z,9.52
2023-01-30T01:07:37.154Z,11.55
2023-01-30T01:12:38.820Z,15.70
2023-01-30T01:17:41.851Z,12.07
2023-01-30T01:22:45.630Z,12.50
2023-01-30T01:27:47.962Z,13.13
2023-01-30T01:32:51.500Z,16.55
2023-01-30T01:37:54.497Z,12.25
2023-01-30T01:42:56.142Z,11.60
2023-01-30T01:48:10.453Z,13.60
2023-01-30T01:53:16.185Z,14.95
2023-01-30T01:58:24.732Z,14.27
2023-01-30T02:03:30.306Z,16.77
2023-01-30T02:08:37.621Z,16.65
2023-01-30T02:13:39.267Z,13.77
2023-01-30T02:18:44.019Z,12.55
2023-01-30T02:24:07.095Z,11.85
2023-01-30T02:29:39.268Z,12.38
2023-01-30T02:34:53.192Z,8.73
2023-01-30T02:40:22.955Z,14.38
2023-01-30T02:45:43.509Z,13.98
2023-01-30T02:50:55.031Z,12.60
2023-01-30T02:55:56.748Z,11.37
2023-01-30T03:01:16.895Z,14.50
2023-01-30T03:06:27.251Z,15.60
2023-01-30T03:11:48.487Z,13.45
2023-01-30T03:16:54.932Z,11.90
2023-01-30T03:21:56.671Z,13.63
2023-01-30T03:27:10.572Z,20.17
2023-01-30T03:32:13.083Z,19.20
2023-01-30T03:37:15.868Z,11.88
2023-01-30T03:42:18.043Z,15.63
2023-01-30T03:47:19.819Z,13.82
2023-01-30T03:52:24.134Z,15.07
2023-01-30T03:57:25.765Z,11.77
2023-01-30T04:02:27.684Z,12.55
2023-01-30T04:07:31.055Z,12.77
2023-01-30T04:12:33.105Z,10.90
2023-01-30T04:17:35.436Z,11.00
2023-01-30T04:22:46.107Z,11.90
2023-01-30T04:27:48.062Z,16.05
2023-01-30T04:32:53.207Z,11.43
2023-01-30T04:37:55.187Z,14.02
2023-01-30T04:42:56.796Z,14.60
2023-01-30T04:48:10.318Z,13.55
2023-01-30T04:53:13.177Z,14.07
2023-01-30T04:58:16.635Z,17.23
2023-01-30T05:03:18.461Z,23.15
2023-01-30T05:08:20.068Z,12.82
2023-01-30T05:13:21.657Z,18.25
2023-01-30T05:18:23.311Z,13.40
2023-01-30T05:23:24.972Z,13.88
2023-01-30T05:28:26.781Z,20.20
2023-01-30T05:33:28.828Z,17.60
2023-01-30T05:38:30.521Z,17.58
2023-01-30T05:43:33.354Z,23.30
2023-01-30T05:48:34.988Z,17.23
2023-01-30T05:53:37.252Z,21.48
2023-01-30T05:58:39.063Z,20.45
2023-01-30T06:03:41.114Z,19.90
2023-01-30T06:08:42.916Z,22.90
2023-01-30T06:13:44.806Z,23.38
2023-01-30T06:18:49.201Z,23.15
2023-01-30T06:23:51.020Z,17.15
2023-01-30T06:28:52.642Z,22.80
2023-01-30T06:33:54.260Z,30.98
2023-01-30T06:38:55.876Z,23.05
2023-01-30T06:43:57.604Z,20.70
2023-01-30T06:48:59.175Z,20.85
2023-01-30T06:54:00.767Z,21.83
2023-01-30T06:59:02.443Z,19.55
2023-01-30T07:04:04.119Z,18.98
2023-01-30T07:09:05.746Z,23.40
2023-01-30T07:14:07.456Z,20.77
2023-01-30T07:19:09.189Z,20.05
2023-01-30T07:24:10.763Z,21.80
2023-01-30T07:34:14.162Z,22.50
2023-01-30T07:39:15.781Z,14.65
2023-01-30T07:44:17.419Z,18.60
2023-01-30T07:49:19.051Z,19.08
2023-01-30T07:54:20.755Z,17.23
2023-01-30T07:59:22.373Z,14.85
2023-01-30T08:04:24.244Z,15.80
2023-01-30T08:09:25.887Z,17.00
2023-01-30T08:14:29.536Z,17.88
2023-01-30T08:19:31.163Z,19.65
2023-01-30T08:24:33.961Z,16.25
2023-01-30T08:29:35.694Z,19.67
2023-01-30T08:34:37.488Z,16.80
2023-01-30T08:39:39.097Z,18.55
2023-01-30T08:44:40.766Z,19.75
2023-01-30T08:49:42.376Z,16.88
2023-01-30T08:54:44.030Z,19.05
2023-01-30T08:59:45.980Z,20.15
2023-01-30T09:04:47.664Z,18.08
2023-01-30T09:09:49.322Z,15.57
2023-01-30T09:14:53.194Z,17.42
2023-01-30T09:19:54.789Z,23.70
2023-01-30T09:24:56.470Z,15.95
2023-01-30T09:29:58.235Z,19.60
2023-01-30T09:35:06.450Z,19.83
2023-01-30T09:40:15.839Z,24.48
2023-01-30T09:45:26.635Z,16.65
2023-01-30T09:50:51.877Z,21.40
2023-01-30T09:55:53.690Z,20.30
2023-01-30T10:01:06.531Z,29.08
2023-01-30T10:06:13.674Z,24.48
2023-01-30T10:11:17.999Z,17.52
2023-01-30T10:17:07.581Z,20.20
2023-01-30T10:22:24.587Z,25.58
2023-01-30T10:27:30.686Z,21.40
2023-01-30T10:32:52.659Z,23.73
2023-01-30T10:38:16.230Z,22.77
2023-01-30T10:43:36.838Z,33.38
2023-01-30T10:48:49.563Z,22.17
2023-01-30T10:54:31.185Z,23.10
2023-01-30T11:00:02.926Z,20.85
2023-01-30T11:05:14.388Z,27.50
2023-01-30T11:10:19.274Z,23.83
2023-01-30T11:15:24.748Z,21.73
2023-01-30T11:20:26.500Z,23.25
2023-01-30T11:25:28.129Z,21.73
2023-01-30T11:30:34.753Z,18.98
2023-01-30T11:35:43.729Z,21.45
2023-01-30T11:40:45.531Z,20.20
2023-01-30T11:45:50.075Z,26.77
2023-01-30T11:51:02.192Z,24.85
2023-01-30T11:56:10.105Z,17.95
2023-01-30T12:01:14.303Z,24.35
2023-01-30T12:06:34.453Z,28.40
2023-01-30T12:11:45.279Z,23.00
2023-01-30T12:16:56.098Z,18.92
2023-01-30T12:22:12.425Z,28.50
2023-01-30T12:27:23.796Z,24.73
2023-01-30T12:32:32.071Z,16.92
2023-01-30T12:37:40.371Z,24.70
2023-01-30T12:43:16.368Z,18.70
2023-01-30T12:48:44.171Z,21.55
2023-01-30T12:54:16.185Z,21.85
2023-01-30T12:59:28.016Z,25.50
2023-01-30T13:04:37.520Z,17.23
2023-01-30T13:09:55.860Z,15.15
2023-01-30T13:15:12.178Z,24.08
2023-01-30T13:20:14.821Z,20.45
2023-01-30T13:25:16.479Z,24.50
2023-01-30T13:30:19.428Z,16.92
2023-01-30T13:35:28.072Z,21.20
2023-01-30T13:40:39.179Z,20.45
2023-01-30T13:45:45.187Z,25.90
2023-01-30T13:50:56.279Z,20.15
2023-01-30T13:56:02.512Z,23.73
2023-01-30T14:01:16.319Z,23.27
2023-01-30T14:06:37.664Z,22.67
2023-01-30T14:11:48.700Z,22.88
2023-01-30T14:16:53.607Z,20.85
2023-01-30T14:21:57.664Z,16.23
2023-01-30T14:27:00.313Z,20.15
2023-01-30T14:32:02.161Z,24.35
2023-01-30T14:37:05.222Z,23.65
2023-01-30T14:42:33.485Z,17.95
2023-01-30T14:47:46.282Z,20.02
2023-01-30T14:52:54.594Z,22.60
2023-01-30T14:58:00.619Z,18.27
2023-01-30T15:03:08.422Z,21.75
2023-01-30T15:08:16.119Z,21.40
2023-01-30T15:13:57.032Z,17.05
2023-01-30T15:19:13.842Z,25.77
2023-01-30T15:24:40.956Z,17.60
2023-01-30T15:30:04.413Z,14.38
2023-01-30T15:35:12.009Z,22.35
2023-01-30T15:40:17.979Z,16.50
2023-01-30T15:45:58.674Z,11.23
2023-01-30T15:51:01.332Z,19.57
2023-01-30T15:56:08.689Z,13.07
2023-01-30T16:01:17.377Z,9.85
2023-01-30T16:06:39.374Z,12.80
2023-01-30T16:11:43.282Z,16.33
2023-01-30T16:16:48.141Z,13.50
2023-01-30T16:21:49.911Z,17.30
2023-01-30T16:26:56.253Z,14.57
2023-01-30T16:31:58.250Z,12.88
2023-01-30T16:37:28.307Z,24.00
2023-01-30T16:42:31.441Z,12.70
2023-01-30T16:47:37.539Z,18.58
2023-01-30T16:52:47.770Z,20.35
2023-01-30T16:58:00.597Z,15.02
2023-01-30T17:03:06.126Z,20.73
2023-01-30T17:08:45.122Z,19.33
2023-01-30T17:13:46.777Z,25.23
2023-01-30T17:18:49.887Z,14.30
2023-01-30T17:24:17.868Z,20.10
2023-01-30T17:29:41.047Z,15.30
2023-01-30T17:34:42.355Z,16.50
2023-01-30T17:39:44.594Z,16.67
2023-01-30T17:44:46.200Z,12.95
2023-01-30T17:49:47.942Z,12.73
2023-01-30T17:54:49.634Z,16.67
2023-01-30T17:59:52.604Z,19.33
2023-01-30T18:04:54.387Z,14.77
2023-01-30T18:09:56.130Z,15.05
2023-01-30T18:14:58.583Z,12.57
2023-01-30T18:20:01.840Z,17.38
2023-01-30T18:25:03.874Z,20.17
2023-01-30T18:30:06.020Z,24.33
2023-01-30T18:35:08.200Z,14.32
2023-01-30T18:40:13.540Z,15.52
2023-01-30T18:45:15.293Z,17.38
2023-01-30T18:50:17.258Z,12.52
2023-01-30T18:55:20.561Z,15.40
2023-01-30T19:00:23.141Z,16.67
2023-01-30T19:05:24.954Z,16.08
2023-01-30T19:10:26.669Z,10.57
2023-01-30T19:15:28.705Z,13.80
2023-01-30T19:20:31.111Z,14.82
2023-01-30T19:25:32.971Z,22.05
2023-01-30T19:30:36.651Z,16.02
2023-01-30T19:35:40.510Z,15.02
2023-01-30T19:40:46.856Z,13.90
2023-01-30T19:45:59.895Z,16.55
2023-01-30T19:51:16.956Z,12.30
2023-01-30T19:56:21.797Z,18.45
2023-01-30T20:01:27.616Z,12.73
2023-01-30T20:06:31.876Z,15.23
2023-01-30T20:11:35.541Z,12.25
2023-01-30T20:16:37.523Z,17.17
2023-01-30T20:21:39.325Z,16.63
2023-01-30T20:26:41.924Z,15.48
2023-01-30T20:31:43.736Z,12.80
2023-01-30T20:36:45.397Z,15.38
2023-01-30T20:41:47.471Z,17.98
2023-01-30T20:46:49.802Z,12.15
2023-01-30T20:51:53.103Z,14.45
2023-01-30T20:56:55.019Z,12.32
2023-01-30T21:01:56.716Z,13.70
2023-01-30T21:06:58.379Z,10.35
2023-01-30T21:12:00.061Z,10.73
2023-01-30T21:17:01.827Z,13.07
2023-01-30T21:22:09.534Z,15.73
2023-01-30T21:27:11.249Z,8.75
2023-01-30T21:32:13.081Z,13.60
2023-01-30T21:37:33.292Z,12.23
2023-01-30T21:42:53.305Z,11.05
2023-01-30T21:47:55.054Z,11.75
2023-01-30T21:52:57.360Z,10.57
2023-01-30T21:57:59.091Z,13.73
2023-01-30T22:03:00.724Z,14.45
2023-01-30T22:08:03.325Z,12.40
2023-01-30T22:13:04.997Z,11.57
2023-01-30T22:18:06.664Z,12.80
2023-01-30T22:23:08.245Z,9.82
2023-01-30T22:28:10.322Z,16.73
2023-01-30T22:33:12.207Z,12.23
2023-01-30T22:38:14.006Z,12.55
2023-01-30T22:43:16.162Z,13.57
2023-01-30T22:48:17.942Z,14.18
2023-01-30T22:53:20.069Z,13.45
2023-01-30T22:58:21.820Z,9.25
2023-01-30T23:03:23.530Z,9.70
2023-01-30T23:08:25.790Z,8.90
2023-01-30T23:13:28.279Z,12.93
2023-01-30T23:18:51.679Z,14.93
2023-01-30T23:23:55.112Z,10.88
2023-01-30T23:28:58.831Z,14.32
2023-01-30T23:34:02.730Z,9.98
2023-01-30T23:39:05.435Z,10.20
2023-01-30T23:44:07.219Z,12.25
2023-01-30T23:49:13.577Z,9.95
2023-01-30T23:54:15.266Z,11.13
2023-01-30T23:59:16.917Z,9.40
